sensor_id;sensor_type;location;lat;lon;timestamp;P1;durP1;ratioP1;P2;durP2;ratioP2
48481;SDS011;34284;48.278;16.378;2023-03-23T00:01:24;11.52;;;6.28;;
48481;SDS011;34284;48.278;16.378;2023-03-23T00:03:55;9.07;;;5.75;;
48481;SDS011;34284;48.278;16.378;2023-03-23T00:06:22;11.80;;;6.78;;
48481;SDS011;34284;48.278;16.378;2023-03-23T00:08:49;17.55;;;6.43;;
48481;SDS011;34284;48.278;16.378;2023-03-23T00:11:18;11.25;;;6.60;;
48481;SDS011;34284;48.278;16.378;2023-03-23T00:13:45;13.85;;;6.50;;
48481;SDS011;34284;48.278;16.378;2023-03-23T00:16:13;11.52;;;6.25;;
48481;SDS011;34284;48.278;16.378;2023-03-23T00:18:46;12.20;;;5.70;;
48481;SDS011;34284;48.278;16.378;2023-03-23T00:21:12;11.75;;;6.10;;
48481;SDS011;34284;48.278;16.378;2023-03-23T00:23:39;10.52;;;6.55;;
48481;SDS011;34284;48.278;16.378;2023-03-23T00:26:05;11.18;;;6.25;;
48481;SDS011;34284;48.278;16.378;2023-03-23T00:28:32;11.13;;;5.90;;
48481;SDS011;34284;48.278;16.378;2023-03-23T00:30:59;10.40;;;5.97;;
48481;SDS011;34284;48.278;16.378;2023-03-23T00:33:30;8.52;;;5.65;;
48481;SDS011;34284;48.278;16.378;2023-03-23T00:35:58;13.00;;;5.85;;
48481;SDS011;34284;48.278;16.378;2023-03-23T00:38:24;11.45;;;7.00;;
48481;SDS011;34284;48.278;16.378;2023-03-23T00:40:50;9.27;;;6.50;;
48481;SDS011;34284;48.278;16.378;2023-03-23T00:43:17;12.60;;;6.95;;
48481;SDS011;34284;48.278;16.378;2023-03-23T00:45:44;10.45;;;5.90;;
48481;SDS011;34284;48.278;16.378;2023-03-23T00:48:14;8.63;;;6.35;;
48481;SDS011;34284;48.278;16.378;2023-03-23T00:50:40;14.70;;;7.07;;
48481;SDS011;34284;48.278;16.378;2023-03-23T00:53:06;19.35;;;6.53;;
48481;SDS011;34284;48.278;16.378;2023-03-23T00:55:33;11.55;;;5.80;;
48481;SDS011;34284;48.278;16.378;2023-03-23T00:57:59;10.68;;;5.82;;
48481;SDS011;34284;48.278;16.378;2023-03-23T01:00:25;9.73;;;6.32;;
48481;SDS011;34284;48.278;16.378;2023-03-23T01:02:55;10.93;;;5.90;;
48481;SDS011;34284;48.278;16.378;2023-03-23T01:05:21;12.40;;;6.15;;
48481;SDS011;34284;48.278;16.378;2023-03-23T01:07:47;9.30;;;6.60;;
48481;SDS011;34284;48.278;16.378;2023-03-23T01:10:13;7.38;;;5.22;;
48481;SDS011;34284;48.278;16.378;2023-03-23T01:12:44;11.23;;;6.53;;
48481;SDS011;34284;48.278;16.378;2023-03-23T01:15:13;8.50;;;5.85;;
48481;SDS011;34284;48.278;16.378;2023-03-23T01:17:40;9.35;;;6.07;;
48481;SDS011;34284;48.278;16.378;2023-03-23T01:20:06;16.85;;;7.70;;
48481;SDS011;34284;48.278;16.378;2023-03-23T01:22:33;8.63;;;6.03;;
48481;SDS011;34284;48.278;16.378;2023-03-23T01:24:59;11.98;;;6.55;;
48481;SDS011;34284;48.278;16.378;2023-03-23T01:27:25;8.63;;;6.30;;
48481;SDS011;34284;48.278;16.378;2023-03-23T01:29:51;11.18;;;6.13;;
48481;SDS011;34284;48.278;16.378;2023-03-23T01:32:17;8.10;;;5.60;;
48481;SDS011;34284;48.278;16.378;2023-03-23T01:34:43;9.70;;;6.30;;
48481;SDS011;34284;48.278;16.378;2023-03-23T01:37:09;11.35;;;6.45;;
48481;SDS011;34284;48.278;16.378;2023-03-23T01:39:35;9.60;;;6.55;;
48481;SDS011;34284;48.278;16.378;2023-03-23T01:42:02;8.85;;;6.50;;
48481;SDS011;34284;48.278;16.378;2023-03-23T01:46:57;11.18;;;6.15;;
48481;SDS011;34284;48.278;16.378;2023-03-23T01:49:29;11.55;;;6.28;;
48481;SDS011;34284;48.278;16.378;2023-03-23T01:51:59;7.43;;;5.80;;
48481;SDS011;34284;48.278;16.378;2023-03-23T01:54:26;9.57;;;6.63;;
48481;SDS011;34284;48.278;16.378;2023-03-23T01:56:59;10.32;;;6.53;;
48481;SDS011;34284;48.278;16.378;2023-03-23T01:59:27;11.50;;;6.32;;
48481;SDS011;34284;48.278;16.378;2023-03-23T02:01:53;9.77;;;5.80;;
48481;SDS011;34284;48.278;16.378;2023-03-23T02:04:20;15.00;;;6.63;;
48481;SDS011;34284;48.278;16.378;2023-03-23T02:06:47;9.07;;;6.47;;
48481;SDS011;34284;48.278;16.378;2023-03-23T02:09:14;11.75;;;6.45;;
48481;SDS011;34284;48.278;16.378;2023-03-23T02:11:42;7.82;;;5.78;;
48481;SDS011;34284;48.278;16.378;2023-03-23T02:14:08;10.48;;;6.28;;
48481;SDS011;34284;48.278;16.378;2023-03-23T02:32:04;10.63;;;6.18;;
48481;SDS011;34284;48.278;16.378;2023-03-23T02:34:54;6.88;;;5.18;;
48481;SDS011;34284;48.278;16.378;2023-03-23T02:37:24;8.75;;;5.35;;
48481;SDS011;34284;48.278;16.378;2023-03-23T02:39:53;8.25;;;5.32;;
48481;SDS011;34284;48.278;16.378;2023-03-23T02:42:23;9.18;;;5.13;;
48481;SDS011;34284;48.278;16.378;2023-03-23T02:44:51;8.15;;;5.50;;
48481;SDS011;34284;48.278;16.378;2023-03-23T02:47:19;7.85;;;5.60;;
48481;SDS011;34284;48.278;16.378;2023-03-23T02:49:46;9.20;;;5.65;;
48481;SDS011;34284;48.278;16.378;2023-03-23T02:52:15;7.68;;;5.07;;
48481;SDS011;34284;48.278;16.378;2023-03-23T02:54:42;13.20;;;4.97;;
48481;SDS011;34284;48.278;16.378;2023-03-23T02:57:09;9.25;;;5.10;;
48481;SDS011;34284;48.278;16.378;2023-03-23T02:59:36;9.73;;;6.00;;
48481;SDS011;34284;48.278;16.378;2023-03-23T03:04:28;12.52;;;5.88;;
48481;SDS011;34284;48.278;16.378;2023-03-23T03:07:39;8.13;;;5.22;;
48481;SDS011;34284;48.278;16.378;2023-03-23T03:09:50;9.38;;;5.28;;
48481;SDS011;34284;48.278;16.378;2023-03-23T03:12:34;8.15;;;5.03;;
48481;SDS011;34284;48.278;16.378;2023-03-23T03:17:30;9.93;;;5.60;;
48481;SDS011;34284;48.278;16.378;2023-03-23T03:19:57;9.80;;;5.40;;
48481;SDS011;34284;48.278;16.378;2023-03-23T03:22:26;8.25;;;5.15;;
48481;SDS011;34284;48.278;16.378;2023-03-23T03:24:55;10.52;;;5.03;;
48481;SDS011;34284;48.278;16.378;2023-03-23T03:27:22;9.10;;;5.43;;
48481;SDS011;34284;48.278;16.378;2023-03-23T03:29:51;10.80;;;4.97;;
48481;SDS011;34284;48.278;16.378;2023-03-23T03:32:21;10.93;;;5.43;;
48481;SDS011;34284;48.278;16.378;2023-03-23T03:34:48;12.10;;;6.38;;
48481;SDS011;34284;48.278;16.378;2023-03-23T03:37:15;7.28;;;5.05;;
48481;SDS011;34284;48.278;16.378;2023-03-23T03:39:41;9.02;;;4.82;;
48481;SDS011;34284;48.278;16.378;2023-03-23T03:42:07;7.85;;;5.50;;
48481;SDS011;34284;48.278;16.378;2023-03-23T03:44:33;9.60;;;5.45;;
48481;SDS011;34284;48.278;16.378;2023-03-23T03:47:00;6.97;;;4.78;;
48481;SDS011;34284;48.278;16.378;2023-03-23T03:49:26;13.25;;;5.38;;
48481;SDS011;34284;48.278;16.378;2023-03-23T03:51:52;8.80;;;4.93;;
48481;SDS011;34284;48.278;16.378;2023-03-23T03:54:18;11.77;;;4.97;;
48481;SDS011;34284;48.278;16.378;2023-03-23T03:56:44;6.78;;;4.70;;
48481;SDS011;34284;48.278;16.378;2023-03-23T03:59:10;10.68;;;6.47;;
48481;SDS011;34284;48.278;16.378;2023-03-23T04:01:37;8.18;;;5.13;;
48481;SDS011;34284;48.278;16.378;2023-03-23T04:04:04;7.55;;;5.47;;
48481;SDS011;34284;48.278;16.378;2023-03-23T04:06:32;10.35;;;5.50;;
48481;SDS011;34284;48.278;16.378;2023-03-23T04:09:01;12.98;;;5.55;;
48481;SDS011;34284;48.278;16.378;2023-03-23T04:11:30;8.27;;;5.43;;
48481;SDS011;34284;48.278;16.378;2023-03-23T04:13:56;9.15;;;4.85;;
48481;SDS011;34284;48.278;16.378;2023-03-23T04:16:23;12.02;;;5.25;;
48481;SDS011;34284;48.278;16.378;2023-03-23T04:18:49;10.73;;;5.18;;
48481;SDS011;34284;48.278;16.378;2023-03-23T04:21:15;8.88;;;4.63;;
48481;SDS011;34284;48.278;16.378;2023-03-23T04:23:41;10.68;;;5.30;;
48481;SDS011;34284;48.278;16.378;2023-03-23T04:26:07;7.22;;;5.18;;
48481;SDS011;34284;48.278;16.378;2023-03-23T04:28:38;9.70;;;5.78;;
48481;SDS011;34284;48.278;16.378;2023-03-23T04:31:04;8.07;;;5.60;;
48481;SDS011;34284;48.278;16.378;2023-03-23T04:33:30;12.25;;;5.55;;
48481;SDS011;34284;48.278;16.378;2023-03-23T04:35:56;8.75;;;5.18;;
48481;SDS011;34284;48.278;16.378;2023-03-23T04:38:26;8.57;;;5.70;;
48481;SDS011;34284;48.278;16.378;2023-03-23T04:40:53;9.65;;;4.70;;
48481;SDS011;34284;48.278;16.378;2023-03-23T04:43:20;9.73;;;5.00;;
48481;SDS011;34284;48.278;16.378;2023-03-23T04:45:51;8.90;;;5.50;;
48481;SDS011;34284;48.278;16.378;2023-03-23T04:48:20;13.45;;;7.00;;
48481;SDS011;34284;48.278;16.378;2023-03-23T04:50:47;7.22;;;6.13;;
48481;SDS011;34284;48.278;16.378;2023-03-23T04:53:15;12.88;;;5.97;;
48481;SDS011;34284;48.278;16.378;2023-03-23T04:55:43;9.75;;;6.30;;
48481;SDS011;34284;48.278;16.378;2023-03-23T04:58:09;11.15;;;6.15;;
48481;SDS011;34284;48.278;16.378;2023-03-23T05:00:37;11.60;;;6.75;;
48481;SDS011;34284;48.278;16.378;2023-03-23T05:03:03;13.40;;;6.80;;
48481;SDS011;34284;48.278;16.378;2023-03-23T05:05:29;11.80;;;6.07;;
48481;SDS011;34284;48.278;16.378;2023-03-23T05:07:56;10.70;;;6.00;;
48481;SDS011;34284;48.278;16.378;2023-03-23T05:10:23;13.93;;;5.75;;
48481;SDS011;34284;48.278;16.378;2023-03-23T05:12:49;15.38;;;5.90;;
48481;SDS011;34284;48.278;16.378;2023-03-23T05:15:16;11.40;;;6.78;;
48481;SDS011;34284;48.278;16.378;2023-03-23T05:17:42;13.52;;;6.95;;
48481;SDS011;34284;48.278;16.378;2023-03-23T05:20:13;14.50;;;6.82;;
48481;SDS011;34284;48.278;16.378;2023-03-23T05:22:40;12.55;;;6.82;;
48481;SDS011;34284;48.278;16.378;2023-03-23T05:25:06;10.82;;;6.85;;
48481;SDS011;34284;48.278;16.378;2023-03-23T05:27:36;9.50;;;6.55;;
48481;SDS011;34284;48.278;16.378;2023-03-23T05:30:03;10.25;;;6.93;;
48481;SDS011;34284;48.278;16.378;2023-03-23T05:32:29;13.65;;;7.65;;
48481;SDS011;34284;48.278;16.378;2023-03-23T05:34:56;14.00;;;7.78;;
48481;SDS011;34284;48.278;16.378;2023-03-23T05:37:22;13.18;;;7.88;;
48481;SDS011;34284;48.278;16.378;2023-03-23T05:39:48;11.73;;;7.95;;
48481;SDS011;34284;48.278;16.378;2023-03-23T05:42:18;15.93;;;8.73;;
48481;SDS011;34284;48.278;16.378;2023-03-23T05:44:44;16.63;;;9.25;;
48481;SDS011;34284;48.278;16.378;2023-03-23T05:47:10;20.65;;;10.45;;
48481;SDS011;34284;48.278;16.378;2023-03-23T05:49:37;13.82;;;9.15;;
48481;SDS011;34284;48.278;16.378;2023-03-23T05:52:03;12.85;;;8.85;;
48481;SDS011;34284;48.278;16.378;2023-03-23T05:54:29;16.90;;;10.27;;
48481;SDS011;34284;48.278;16.378;2023-03-23T05:56:55;16.40;;;9.88;;
48481;SDS011;34284;48.278;16.378;2023-03-23T05:59:21;13.77;;;9.38;;
48481;SDS011;34284;48.278;16.378;2023-03-23T06:01:47;17.40;;;9.80;;
48481;SDS011;34284;48.278;16.378;2023-03-23T06:04:14;12.27;;;8.98;;
48481;SDS011;34284;48.278;16.378;2023-03-23T06:06:41;15.32;;;9.50;;
48481;SDS011;34284;48.278;16.378;2023-03-23T06:09:08;22.55;;;10.23;;
48481;SDS011;34284;48.278;16.378;2023-03-23T06:11:35;15.48;;;10.38;;
48481;SDS011;34284;48.278;16.378;2023-03-23T06:14:01;13.25;;;9.48;;
48481;SDS011;34284;48.278;16.378;2023-03-23T06:16:27;15.88;;;9.73;;
48481;SDS011;34284;48.278;16.378;2023-03-23T06:18:53;14.60;;;10.40;;
48481;SDS011;34284;48.278;16.378;2023-03-23T06:21:21;14.18;;;10.13;;
48481;SDS011;34284;48.278;16.378;2023-03-23T06:23:47;19.05;;;10.85;;
48481;SDS011;34284;48.278;16.378;2023-03-23T06:26:14;15.85;;;9.95;;
48481;SDS011;34284;48.278;16.378;2023-03-23T06:28:42;15.10;;;10.38;;
48481;SDS011;34284;48.278;16.378;2023-03-23T06:31:08;21.80;;;10.80;;
48481;SDS011;34284;48.278;16.378;2023-03-23T06:33:35;20.33;;;11.00;;
48481;SDS011;34284;48.278;16.378;2023-03-23T06:36:01;20.35;;;11.18;;
48481;SDS011;34284;48.278;16.378;2023-03-23T06:38:27;22.17;;;11.23;;
48481;SDS011;34284;48.278;16.378;2023-03-23T06:40:53;24.73;;;11.70;;
48481;SDS011;34284;48.278;16.378;2023-03-23T06:43:20;23.17;;;10.80;;
48481;SDS011;34284;48.278;16.378;2023-03-23T06:45:46;17.73;;;10.57;;
48481;SDS011;34284;48.278;16.378;2023-03-23T06:48:12;19.23;;;10.23;;
48481;SDS011;34284;48.278;16.378;2023-03-23T06:50:38;24.25;;;9.82;;
48481;SDS011;34284;48.278;16.378;2023-03-23T06:53:07;22.15;;;9.40;;
48481;SDS011;34284;48.278;16.378;2023-03-23T06:55:33;14.77;;;9.32;;
48481;SDS011;34284;48.278;16.378;2023-03-23T06:57:59;17.80;;;9.15;;
48481;SDS011;34284;48.278;16.378;2023-03-23T07:00:26;15.15;;;9.30;;
48481;SDS011;34284;48.278;16.378;2023-03-23T07:02:52;15.63;;;9.10;;
48481;SDS011;34284;48.278;16.378;2023-03-23T07:05:18;17.83;;;9.40;;
48481;SDS011;34284;48.278;16.378;2023-03-23T07:07:44;22.20;;;9.63;;
48481;SDS011;34284;48.278;16.378;2023-03-23T07:10:10;20.25;;;9.13;;
48481;SDS011;34284;48.278;16.378;2023-03-23T07:12:37;17.30;;;8.98;;
48481;SDS011;34284;48.278;16.378;2023-03-23T07:15:03;14.82;;;9.77;;
48481;SDS011;34284;48.278;16.378;2023-03-23T07:17:29;14.52;;;7.60;;
48481;SDS011;34284;48.278;16.378;2023-03-23T07:19:56;16.48;;;8.75;;
48481;SDS011;34284;48.278;16.378;2023-03-23T07:22:22;15.95;;;9.00;;
48481;SDS011;34284;48.278;16.378;2023-03-23T07:24:48;15.07;;;8.15;;
48481;SDS011;34284;48.278;16.378;2023-03-23T07:27:14;10.20;;;7.60;;
48481;SDS011;34284;48.278;16.378;2023-03-23T07:29:40;10.57;;;8.65;;
48481;SDS011;34284;48.278;16.378;2023-03-23T07:32:08;13.93;;;9.00;;
48481;SDS011;34284;48.278;16.378;2023-03-23T07:34:35;14.85;;;8.52;;
48481;SDS011;34284;48.278;16.378;2023-03-23T07:37:02;12.68;;;8.27;;
48481;SDS011;34284;48.278;16.378;2023-03-23T07:39:28;13.27;;;8.32;;
48481;SDS011;34284;48.278;16.378;2023-03-23T07:41:54;16.98;;;8.77;;
48481;SDS011;34284;48.278;16.378;2023-03-23T07:44:20;13.98;;;8.98;;
48481;SDS011;34284;48.278;16.378;2023-03-23T07:46:46;15.27;;;9.25;;
48481;SDS011;34284;48.278;16.378;2023-03-23T07:49:12;11.35;;;8.48;;
48481;SDS011;34284;48.278;16.378;2023-03-23T07:51:39;14.68;;;9.48;;
48481;SDS011;34284;48.278;16.378;2023-03-23T07:54:05;17.25;;;9.25;;
48481;SDS011;34284;48.278;16.378;2023-03-23T07:56:32;18.58;;;8.88;;
48481;SDS011;34284;48.278;16.378;2023-03-23T07:58:58;12.20;;;8.45;;
48481;SDS011;34284;48.278;16.378;2023-03-23T08:01:25;11.15;;;7.70;;
48481;SDS011;34284;48.278;16.378;2023-03-23T08:03:52;13.70;;;8.98;;
48481;SDS011;34284;48.278;16.378;2023-03-23T08:06:19;16.95;;;9.30;;
48481;SDS011;34284;48.278;16.378;2023-03-23T08:08:46;14.55;;;9.15;;
48481;SDS011;34284;48.278;16.378;2023-03-23T08:11:12;15.30;;;8.90;;
48481;SDS011;34284;48.278;16.378;2023-03-23T08:13:40;16.58;;;8.55;;
48481;SDS011;34284;48.278;16.378;2023-03-23T08:16:06;13.93;;;8.38;;
48481;SDS011;34284;48.278;16.378;2023-03-23T08:18:34;11.10;;;8.05;;
48481;SDS011;34284;48.278;16.378;2023-03-23T08:21:01;25.83;;;9.07;;
48481;SDS011;34284;48.278;16.378;2023-03-23T08:23:29;18.77;;;9.63;;
48481;SDS011;34284;48.278;16.378;2023-03-23T08:25:58;16.02;;;10.15;;
48481;SDS011;34284;48.278;16.378;2023-03-23T08:28:25;16.13;;;9.73;;
48481;SDS011;34284;48.278;16.378;2023-03-23T08:30:51;18.77;;;9.50;;
48481;SDS011;34284;48.278;16.378;2023-03-23T08:33:17;15.38;;;9.27;;
48481;SDS011;34284;48.278;16.378;2023-03-23T08:35:43;25.38;;;12.23;;
48481;SDS011;34284;48.278;16.378;2023-03-23T08:38:11;23.13;;;10.38;;
48481;SDS011;34284;48.278;16.378;2023-03-23T08:40:37;18.55;;;10.35;;
48481;SDS011;34284;48.278;16.378;2023-03-23T08:43:04;18.50;;;9.85;;
48481;SDS011;34284;48.278;16.378;2023-03-23T08:45:30;21.92;;;11.02;;
48481;SDS011;34284;48.278;16.378;2023-03-23T08:47:56;20.27;;;11.07;;
48481;SDS011;34284;48.278;16.378;2023-03-23T08:50:25;17.27;;;11.15;;
48481;SDS011;34284;48.278;16.378;2023-03-23T08:52:52;24.63;;;10.68;;
48481;SDS011;34284;48.278;16.378;2023-03-23T08:55:20;19.65;;;10.80;;
48481;SDS011;34284;48.278;16.378;2023-03-23T08:57:46;18.55;;;10.45;;
48481;SDS011;34284;48.278;16.378;2023-03-23T09:00:17;15.63;;;10.43;;
48481;SDS011;34284;48.278;16.378;2023-03-23T09:02:45;15.02;;;10.05;;
48481;SDS011;34284;48.278;16.378;2023-03-23T09:05:12;17.80;;;10.48;;
48481;SDS011;34284;48.278;16.378;2023-03-23T09:07:39;25.75;;;9.90;;
48481;SDS011;34284;48.278;16.378;2023-03-23T09:10:06;15.48;;;10.98;;
48481;SDS011;34284;48.278;16.378;2023-03-23T09:12:32;18.95;;;11.27;;
48481;SDS011;34284;48.278;16.378;2023-03-23T09:14:59;13.10;;;10.45;;
48481;SDS011;34284;48.278;16.378;2023-03-23T09:17:28;14.52;;;9.55;;
48481;SDS011;34284;48.278;16.378;2023-03-23T09:19:54;17.20;;;10.45;;
48481;SDS011;34284;48.278;16.378;2023-03-23T09:22:20;18.23;;;10.25;;
48481;SDS011;34284;48.278;16.378;2023-03-23T09:24:48;24.33;;;10.68;;
48481;SDS011;34284;48.278;16.378;2023-03-23T09:27:15;13.98;;;11.02;;
48481;SDS011;34284;48.278;16.378;2023-03-23T09:29:41;14.68;;;10.65;;
48481;SDS011;34284;48.278;16.378;2023-03-23T09:32:09;16.95;;;10.88;;
48481;SDS011;34284;48.278;16.378;2023-03-23T09:34:38;14.77;;;11.15;;
48481;SDS011;34284;48.278;16.378;2023-03-23T09:37:04;18.85;;;11.63;;
48481;SDS011;34284;48.278;16.378;2023-03-23T09:39:31;14.85;;;10.52;;
48481;SDS011;34284;48.278;16.378;2023-03-23T09:42:10;17.15;;;11.38;;
48481;SDS011;34284;48.278;16.378;2023-03-23T09:47:16;19.75;;;11.20;;
48481;SDS011;34284;48.278;16.378;2023-03-23T09:49:47;17.67;;;11.68;;
48481;SDS011;34284;48.278;16.378;2023-03-23T09:52:15;19.33;;;12.15;;
48481;SDS011;34284;48.278;16.378;2023-03-23T09:54:43;18.05;;;12.88;;
48481;SDS011;34284;48.278;16.378;2023-03-23T09:57:24;13.38;;;11.27;;
48481;SDS011;34284;48.278;16.378;2023-03-23T10:00:35;21.42;;;10.88;;
48481;SDS011;34284;48.278;16.378;2023-03-23T10:02:46;18.17;;;12.02;;
48481;SDS011;34284;48.278;16.378;2023-03-23T10:07:59;17.77;;;11.13;;
48481;SDS011;34284;48.278;16.378;2023-03-23T10:10:30;13.65;;;10.07;;
48481;SDS011;34284;48.278;16.378;2023-03-23T10:13:02;15.13;;;10.57;;
48481;SDS011;34284;48.278;16.378;2023-03-23T10:15:30;19.45;;;11.80;;
48481;SDS011;34284;48.278;16.378;2023-03-23T10:18:01;22.80;;;10.65;;
48481;SDS011;34284;48.278;16.378;2023-03-23T10:20:46;22.48;;;11.00;;
48481;SDS011;34284;48.278;16.378;2023-03-23T10:25:52;13.27;;;10.50;;
48481;SDS011;34284;48.278;16.378;2023-03-23T10:28:32;19.25;;;10.00;;
48481;SDS011;34284;48.278;16.378;2023-03-23T10:31:00;19.75;;;10.88;;
48481;SDS011;34284;48.278;16.378;2023-03-23T10:35:56;18.88;;;10.63;;
48481;SDS011;34284;48.278;16.378;2023-03-23T10:38:44;11.43;;;9.48;;
48481;SDS011;34284;48.278;16.378;2023-03-23T10:41:13;13.50;;;9.50;;
48481;SDS011;34284;48.278;16.378;2023-03-23T10:43:40;17.67;;;9.45;;
48481;SDS011;34284;48.278;16.378;2023-03-23T10:46:25;17.95;;;9.50;;
48481;SDS011;34284;48.278;16.378;2023-03-23T10:48:53;13.60;;;9.57;;
48481;SDS011;34284;48.278;16.378;2023-03-23T10:51:22;17.70;;;10.07;;
48481;SDS011;34284;48.278;16.378;2023-03-23T10:53:51;15.88;;;11.35;;
48481;SDS011;34284;48.278;16.378;2023-03-23T10:56:25;16.60;;;10.23;;
48481;SDS011;34284;48.278;16.378;2023-03-23T10:58:51;14.45;;;10.40;;
48481;SDS011;34284;48.278;16.378;2023-03-23T11:01:18;18.75;;;10.77;;
48481;SDS011;34284;48.278;16.378;2023-03-23T11:03:46;14.98;;;9.73;;
48481;SDS011;34284;48.278;16.378;2023-03-23T11:06:20;19.02;;;9.85;;
48481;SDS011;34284;48.278;16.378;2023-03-23T11:08:48;18.10;;;11.32;;
48481;SDS011;34284;48.278;16.378;2023-03-23T11:11:16;18.48;;;9.63;;
48481;SDS011;34284;48.278;16.378;2023-03-23T11:13:44;19.55;;;10.38;;
48481;SDS011;34284;48.278;16.378;2023-03-23T11:16:21;13.15;;;10.75;;
48481;SDS011;34284;48.278;16.378;2023-03-23T11:18:47;15.93;;;10.50;;
48481;SDS011;34284;48.278;16.378;2023-03-23T11:21:13;16.50;;;10.10;;
48481;SDS011;34284;48.278;16.378;2023-03-23T11:23:42;11.50;;;9.60;;
48481;SDS011;34284;48.278;16.378;2023-03-23T11:26:10;13.10;;;8.85;;
48481;SDS011;34284;48.278;16.378;2023-03-23T11:28:51;17.60;;;9.50;;
48481;SDS011;34284;48.278;16.378;2023-03-23T11:31:20;14.23;;;9.57;;
48481;SDS011;34284;48.278;16.378;2023-03-23T11:36:13;11.63;;;9.32;;
48481;SDS011;34284;48.278;16.378;2023-03-23T11:38:40;10.50;;;9.27;;
48481;SDS011;34284;48.278;16.378;2023-03-23T11:41:12;12.48;;;9.45;;
48481;SDS011;34284;48.278;16.378;2023-03-23T11:43:39;13.23;;;8.75;;
48481;SDS011;34284;48.278;16.378;2023-03-23T11:46:22;13.57;;;9.80;;
48481;SDS011;34284;48.278;16.378;2023-03-23T11:48:54;11.80;;;8.88;;
48481;SDS011;34284;48.278;16.378;2023-03-23T11:51:35;11.40;;;8.43;;
48481;SDS011;34284;48.278;16.378;2023-03-23T11:54:15;15.20;;;7.85;;
48481;SDS011;34284;48.278;16.378;2023-03-23T11:56:43;20.23;;;8.10;;
48481;SDS011;34284;48.278;16.378;2023-03-23T11:59:12;16.92;;;8.32;;
48481;SDS011;34284;48.278;16.378;2023-03-23T12:09:42;15.55;;;8.68;;
48481;SDS011;34284;48.278;16.378;2023-03-23T12:17:17;14.88;;;8.10;;
48481;SDS011;34284;48.278;16.378;2023-03-23T12:19:55;14.50;;;7.65;;
48481;SDS011;34284;48.278;16.378;2023-03-23T12:30:23;17.65;;;7.70;;
48481;SDS011;34284;48.278;16.378;2023-03-23T12:43:13;13.57;;;8.38;;
48481;SDS011;34284;48.278;16.378;2023-03-23T12:48:15;12.25;;;8.30;;
48481;SDS011;34284;48.278;16.378;2023-03-23T12:51:07;14.38;;;8.63;;
48481;SDS011;34284;48.278;16.378;2023-03-23T12:54:12;18.10;;;8.00;;
48481;SDS011;34284;48.278;16.378;2023-03-23T12:56:24;12.98;;;8.10;;
48481;SDS011;34284;48.278;16.378;2023-03-23T12:58:58;10.65;;;7.32;;
48481;SDS011;34284;48.278;16.378;2023-03-23T13:01:31;13.70;;;6.35;;
48481;SDS011;34284;48.278;16.378;2023-03-23T13:08:55;13.82;;;7.10;;
48481;SDS011;34284;48.278;16.378;2023-03-23T13:11:33;12.65;;;7.13;;
48481;SDS011;34284;48.278;16.378;2023-03-23T13:14:02;9.10;;;6.50;;
48481;SDS011;34284;48.278;16.378;2023-03-23T13:16:37;12.57;;;6.65;;
48481;SDS011;34284;48.278;16.378;2023-03-23T13:21:42;9.73;;;6.63;;
48481;SDS011;34284;48.278;16.378;2023-03-23T13:24:10;9.88;;;5.72;;
48481;SDS011;34284;48.278;16.378;2023-03-23T13:26:39;12.27;;;6.65;;
48481;SDS011;34284;48.278;16.378;2023-03-23T13:31:36;13.57;;;5.88;;
48481;SDS011;34284;48.278;16.378;2023-03-23T13:37:03;16.88;;;6.22;;
48481;SDS011;34284;48.278;16.378;2023-03-23T13:40:17;9.48;;;5.40;;
48481;SDS011;34284;48.278;16.378;2023-03-23T13:42:24;10.60;;;5.43;;
48481;SDS011;34284;48.278;16.378;2023-03-23T13:49:57;9.98;;;5.82;;
48481;SDS011;34284;48.278;16.378;2023-03-23T13:52:37;9.18;;;5.13;;
48481;SDS011;34284;48.278;16.378;2023-03-23T13:55:38;12.32;;;4.80;;
48481;SDS011;34284;48.278;16.378;2023-03-23T14:10:40;40.85;;;5.75;;
48481;SDS011;34284;48.278;16.378;2023-03-23T14:13:14;18.77;;;4.40;;
48481;SDS011;34284;48.278;16.378;2023-03-23T14:15:42;6.80;;;3.95;;
48481;SDS011;34284;48.278;16.378;2023-03-23T14:18:13;5.78;;;4.15;;
48481;SDS011;34284;48.278;16.378;2023-03-23T14:20:39;6.90;;;3.53;;
48481;SDS011;34284;48.278;16.378;2023-03-23T14:23:05;8.18;;;3.70;;
48481;SDS011;34284;48.278;16.378;2023-03-23T14:25:31;6.20;;;4.20;;
48481;SDS011;34284;48.278;16.378;2023-03-23T14:27:58;8.43;;;4.00;;
48481;SDS011;34284;48.278;16.378;2023-03-23T14:30:34;9.85;;;3.80;;
48481;SDS011;34284;48.278;16.378;2023-03-23T14:33:04;17.58;;;4.75;;
48481;SDS011;34284;48.278;16.378;2023-03-23T14:35:34;23.10;;;4.22;;
48481;SDS011;34284;48.278;16.378;2023-03-23T14:38:01;8.02;;;3.60;;
48481;SDS011;34284;48.278;16.378;2023-03-23T14:40:28;13.38;;;3.55;;
48481;SDS011;34284;48.278;16.378;2023-03-23T14:42:55;5.43;;;3.38;;
48481;SDS011;34284;48.278;16.378;2023-03-23T14:45:21;5.32;;;3.35;;
48481;SDS011;34284;48.278;16.378;2023-03-23T14:47:52;7.72;;;2.95;;
48481;SDS011;34284;48.278;16.378;2023-03-23T14:50:22;6.63;;;3.50;;
48481;SDS011;34284;48.278;16.378;2023-03-23T14:52:49;7.65;;;3.83;;
48481;SDS011;34284;48.278;16.378;2023-03-23T14:55:21;12.73;;;4.25;;
48481;SDS011;34284;48.278;16.378;2023-03-23T14:57:48;14.25;;;3.40;;
48481;SDS011;34284;48.278;16.378;2023-03-23T15:00:22;13.52;;;3.67;;
48481;SDS011;34284;48.278;16.378;2023-03-23T15:02:50;11.45;;;3.50;;
48481;SDS011;34284;48.278;16.378;2023-03-23T15:07:44;5.32;;;3.20;;
48481;SDS011;34284;48.278;16.378;2023-03-23T15:10:15;12.23;;;3.70;;
48481;SDS011;34284;48.278;16.378;2023-03-23T15:12:43;5.32;;;3.13;;
48481;SDS011;34284;48.278;16.378;2023-03-23T15:15:19;6.45;;;3.58;;
48481;SDS011;34284;48.278;16.378;2023-03-23T15:17:46;4.25;;;3.22;;
48481;SDS011;34284;48.278;16.378;2023-03-23T15:20:29;10.32;;;3.70;;
48481;SDS011;34284;48.278;16.378;2023-03-23T15:22:56;6.30;;;3.22;;
48481;SDS011;34284;48.278;16.378;2023-03-23T15:25:23;6.93;;;4.25;;
48481;SDS011;34284;48.278;16.378;2023-03-23T15:30:33;4.97;;;3.17;;
48481;SDS011;34284;48.278;16.378;2023-03-23T15:33:06;7.65;;;3.65;;
48481;SDS011;34284;48.278;16.378;2023-03-23T15:35:36;6.82;;;4.00;;
48481;SDS011;34284;48.278;16.378;2023-03-23T15:38:03;7.80;;;3.67;;
48481;SDS011;34284;48.278;16.378;2023-03-23T15:40:36;10.20;;;3.33;;
48481;SDS011;34284;48.278;16.378;2023-03-23T15:45:29;10.07;;;3.53;;
48481;SDS011;34284;48.278;16.378;2023-03-23T15:47:57;4.80;;;2.88;;
48481;SDS011;34284;48.278;16.378;2023-03-23T15:52:52;8.70;;;3.67;;
48481;SDS011;34284;48.278;16.378;2023-03-23T15:57:44;11.35;;;3.72;;
48481;SDS011;34284;48.278;16.378;2023-03-23T16:00:10;8.68;;;3.60;;
48481;SDS011;34284;48.278;16.378;2023-03-23T16:02:36;8.27;;;3.40;;
48481;SDS011;34284;48.278;16.378;2023-03-23T16:05:03;10.38;;;3.67;;
48481;SDS011;34284;48.278;16.378;2023-03-23T16:07:29;7.88;;;3.90;;
48481;SDS011;34284;48.278;16.378;2023-03-23T16:09:55;11.35;;;3.47;;
48481;SDS011;34284;48.278;16.378;2023-03-23T16:12:21;9.90;;;3.83;;
48481;SDS011;34284;48.278;16.378;2023-03-23T16:14:47;11.18;;;3.92;;
48481;SDS011;34284;48.278;16.378;2023-03-23T16:17:15;13.23;;;3.58;;
48481;SDS011;34284;48.278;16.378;2023-03-23T16:19:41;7.50;;;3.30;;
48481;SDS011;34284;48.278;16.378;2023-03-23T16:22:07;5.55;;;3.45;;
48481;SDS011;34284;48.278;16.378;2023-03-23T16:24:34;5.22;;;3.58;;